createdAt,value
2022-10-19T00:01:09.906Z,7.84
2022-10-19T00:03:40.577Z,7.86
2022-10-19T00:06:14.623Z,7.89
2022-10-19T00:08:42.593Z,7.90
2022-10-19T00:11:11.214Z,7.91
2022-10-19T00:13:39.427Z,7.94
2022-10-19T00:16:12.443Z,7.97
2022-10-19T00:18:43.395Z,7.98
2022-10-19T00:21:13.246Z,7.99
2022-10-19T00:23:41.167Z,7.99
2022-10-19T00:26:09.310Z,8.01
2022-10-19T00:28:37.579Z,8.03
2022-10-19T00:31:06.800Z,8.02
2022-10-19T00:33:35.284Z,8.02
2022-10-19T00:36:06.111Z,8.03
2022-10-19T00:38:34.028Z,8.02
2022-10-19T00:41:03.837Z,8.01
2022-10-19T00:43:32.231Z,8.00
2022-10-19T00:46:00.131Z,7.97
2022-10-19T00:48:31.491Z,7.96
2022-10-19T00:51:01.082Z,7.93
2022-10-19T00:53:31.867Z,7.89
2022-10-19T00:56:04.183Z,7.83
2022-10-19T00:58:32.554Z,7.79
2022-10-19T01:01:04.439Z,7.77
2022-10-19T01:03:33.231Z,7.75
2022-10-19T01:06:01.796Z,7.75
2022-10-19T01:08:31.499Z,7.74
2022-10-19T01:11:14.473Z,7.74
2022-10-19T01:13:52.140Z,7.75
2022-10-19T01:16:28.881Z,7.76
2022-10-19T01:19:02.048Z,7.73
2022-10-19T01:21:38.225Z,7.74
2022-10-19T01:24:47.604Z,7.76
2022-10-19T01:27:50.973Z,7.78
2022-10-19T01:30:27.054Z,7.77
2022-10-19T01:33:08.071Z,7.77
2022-10-19T01:35:42.693Z,7.78
2022-10-19T01:38:22.916Z,7.80
2022-10-19T01:40:57.204Z,7.81
2022-10-19T01:43:34.681Z,7.83
2022-10-19T01:46:10.675Z,7.84
2022-10-19T01:48:41.784Z,7.88
2022-10-19T01:51:14.858Z,7.89
2022-10-19T01:53:47.795Z,7.89
2022-10-19T01:56:18.937Z,7.88
2022-10-19T01:58:48.205Z,7.89
2022-10-19T02:01:21.032Z,7.86
2022-10-19T02:03:50.794Z,7.83
2022-10-19T02:06:19.824Z,7.76
2022-10-19T02:08:49.613Z,7.76
2022-10-19T02:11:18.810Z,7.78
2022-10-19T02:13:50.352Z,7.78
2022-10-19T02:16:22.961Z,7.79
2022-10-19T02:18:53.162Z,7.79
2022-10-19T02:21:21.404Z,7.80
2022-10-19T02:23:51.813Z,7.81
2022-10-19T02:26:23.026Z,7.81
2022-10-19T02:28:51.614Z,7.80
2022-10-19T02:31:20.831Z,7.82
2022-10-19T02:33:48.955Z,7.82
2022-10-19T02:36:16.819Z,7.84
2022-10-19T02:38:44.932Z,7.85
2022-10-19T02:41:17.062Z,7.83
2022-10-19T02:43:49.579Z,7.81
2022-10-19T02:46:19.853Z,7.80
2022-10-19T02:48:52.147Z,7.79
2022-10-19T02:51:31.680Z,7.80
2022-10-19T02:54:02.612Z,7.80
2022-10-19T02:56:33.318Z,7.80
2022-10-19T02:59:01.493Z,7.80
2022-10-19T03:01:29.308Z,7.82
2022-10-19T03:03:58.477Z,7.82
2022-10-19T03:06:26.359Z,7.81
2022-10-19T03:08:54.158Z,7.81
2022-10-19T03:11:22.298Z,7.82
2022-10-19T03:13:50.071Z,7.81
2022-10-19T03:16:17.907Z,7.78
2022-10-19T03:18:45.776Z,7.76
2022-10-19T03:21:15.046Z,7.74
2022-10-19T03:23:43.221Z,7.73
2022-10-19T03:26:15.405Z,7.72
2022-10-19T03:28:43.672Z,7.71
2022-10-19T03:31:11.473Z,7.66
2022-10-19T03:33:39.498Z,7.60
2022-10-19T03:36:22.559Z,7.59
2022-10-19T03:38:54.502Z,7.58
2022-10-19T03:41:23.306Z,7.55
2022-10-19T03:43:51.438Z,7.55
2022-10-19T03:46:19.583Z,7.54
2022-10-19T03:48:47.961Z,7.54
2022-10-19T03:51:18.954Z,7.53
2022-10-19T03:53:47.568Z,7.52
2022-10-19T03:56:17.349Z,7.50
2022-10-19T03:58:47.421Z,7.46
2022-10-19T04:01:17.861Z,7.45
2022-10-19T04:03:46.107Z,7.44
2022-10-19T04:06:18.332Z,7.44
2022-10-19T04:08:51.315Z,7.44
2022-10-19T04:11:23.132Z,7.44
2022-10-19T04:13:52.107Z,7.44
2022-10-19T04:16:20.874Z,7.43
2022-10-19T04:18:49.123Z,7.41
2022-10-19T04:21:25.046Z,7.41
2022-10-19T04:23:58.210Z,7.41
2022-10-19T04:26:26.171Z,7.42
2022-10-19T04:28:54.053Z,7.42
2022-10-19T04:31:22.073Z,7.42
2022-10-19T04:33:49.908Z,7.41
2022-10-19T04:36:17.888Z,7.39
2022-10-19T04:38:45.880Z,7.41
2022-10-19T04:41:17.846Z,7.39
2022-10-19T04:43:46.257Z,7.36
2022-10-19T04:46:16.157Z,7.34
2022-10-19T04:48:44.721Z,7.34
2022-10-19T04:51:13.395Z,7.33
2022-10-19T04:53:42.697Z,7.35
2022-10-19T04:56:17.388Z,7.36
2022-10-19T04:58:46.029Z,7.35
2022-10-19T05:01:15.410Z,7.37
2022-10-19T05:03:43.720Z,7.35
2022-10-19T05:06:12.656Z,7.35
2022-10-19T05:08:40.964Z,7.36
2022-10-19T05:11:10.724Z,7.34
2022-10-19T05:13:40.151Z,7.30
2022-10-19T05:16:11.572Z,7.31
2022-10-19T05:18:39.716Z,7.30
2022-10-19T05:21:10.291Z,7.23
2022-10-19T05:23:38.726Z,7.18
2022-10-19T05:26:08.327Z,7.17
2022-10-19T05:28:37.618Z,7.17
2022-10-19T05:31:12.569Z,7.17
2022-10-19T05:33:41.223Z,7.17
2022-10-19T05:36:14.628Z,7.19
2022-10-19T05:38:43.064Z,7.18
2022-10-19T05:41:11.603Z,7.19
2022-10-19T05:43:40.672Z,7.20
2022-10-19T05:46:11.521Z,7.21
2022-10-19T05:48:39.609Z,7.22
2022-10-19T05:51:09.410Z,7.15
2022-10-19T05:56:14.693Z,7.16
2022-10-19T05:58:42.582Z,7.18
2022-10-19T06:01:12.050Z,7.19
2022-10-19T06:03:40.043Z,7.20
2022-10-19T06:06:09.733Z,7.22
2022-10-19T06:08:38.728Z,7.23
2022-10-19T06:11:07.996Z,7.25
2022-10-19T06:13:36.211Z,7.28
2022-10-19T06:16:04.748Z,7.31
2022-10-19T06:18:34.480Z,7.32
2022-10-19T06:21:04.602Z,7.35
2022-10-19T06:23:32.799Z,7.39
2022-10-19T06:26:02.808Z,7.42
2022-10-19T06:28:30.751Z,7.44
2022-10-19T06:30:59.200Z,7.48
2022-10-19T06:33:27.678Z,7.54
2022-10-19T06:35:57.032Z,7.56
2022-10-19T06:38:24.908Z,7.59
2022-10-19T06:40:52.773Z,7.61
2022-10-19T06:43:20.743Z,7.66
2022-10-19T06:45:48.609Z,7.66
2022-10-19T06:48:16.614Z,7.69
2022-10-19T06:50:44.464Z,7.71
2022-10-19T06:53:13.780Z,7.73
2022-10-19T06:55:41.522Z,7.75
2022-10-19T06:58:09.365Z,7.74
2022-10-19T07:00:37.280Z,7.76
2022-10-19T07:03:05.300Z,7.80
2022-10-19T07:05:33.158Z,7.85
2022-10-19T07:08:01.076Z,7.87
2022-10-19T07:10:30.327Z,7.87
2022-10-19T07:12:58.192Z,7.88
2022-10-19T07:15:26.106Z,7.91
2022-10-19T07:17:54.254Z,7.96
2022-10-19T07:20:22.113Z,8.04
2022-10-19T07:22:49.905Z,8.08
2022-10-19T07:25:18.051Z,8.13
2022-10-19T07:27:47.287Z,8.17
2022-10-19T07:30:15.061Z,8.20
2022-10-19T07:32:46.757Z,8.25
2022-10-19T07:35:15.518Z,8.31
2022-10-19T07:37:43.524Z,8.38
2022-10-19T07:40:12.924Z,8.41
2022-10-19T07:42:40.780Z,8.47
2022-10-19T07:45:10.938Z,8.52
2022-10-19T07:47:38.770Z,8.57
2022-10-19T07:50:07.064Z,8.62
2022-10-19T07:52:36.886Z,8.67
2022-10-19T07:55:05.819Z,8.71
2022-10-19T07:57:33.638Z,8.75
2022-10-19T08:00:01.548Z,8.78
2022-10-19T08:02:39.594Z,8.80
2022-10-19T08:05:18.853Z,8.85
2022-10-19T08:07:47.227Z,8.87
2022-10-19T08:10:15.064Z,8.91
2022-10-19T08:12:43.213Z,8.94
2022-10-19T08:15:11.518Z,8.96
2022-10-19T08:17:40.838Z,9.01
2022-10-19T08:20:09.519Z,9.06
2022-10-19T08:22:37.598Z,9.13
2022-10-19T08:25:06.205Z,9.18
2022-10-19T08:27:34.164Z,9.18
2022-10-19T08:30:01.942Z,9.21
2022-10-19T08:32:29.852Z,9.26
2022-10-19T08:34:59.483Z,9.29
2022-10-19T08:37:40.789Z,9.30
2022-10-19T08:40:21.773Z,9.29
2022-10-19T08:43:22.677Z,9.36
2022-10-19T08:45:58.483Z,9.39
2022-10-19T08:48:29.899Z,9.41
2022-10-19T08:51:02.332Z,9.46
2022-10-19T08:53:41.572Z,9.52
2022-10-19T08:56:49.233Z,9.57
2022-10-19T08:59:23.509Z,9.66
2022-10-19T09:01:56.031Z,9.75
2022-10-19T09:04:29.696Z,9.79
2022-10-19T09:07:14.934Z,9.85
2022-10-19T09:12:31.517Z,9.91
2022-10-19T09:15:03.597Z,9.98
2022-10-19T09:17:33.332Z,9.96
2022-10-19T09:20:14.413Z,9.99
2022-10-19T09:22:45.138Z,9.98
2022-10-19T09:25:19.387Z,10.01
2022-10-19T09:27:50.405Z,10.09
2022-10-19T09:30:21.078Z,10.15
2022-10-19T09:32:51.069Z,10.19
2022-10-19T09:35:26.196Z,10.24
2022-10-19T09:37:56.835Z,10.32
2022-10-19T09:40:27.166Z,10.37
2022-10-19T09:42:58.537Z,10.41
2022-10-19T09:45:37.401Z,10.47
2022-10-19T09:48:17.913Z,10.53
2022-10-19T09:50:46.829Z,10.52
2022-10-19T09:53:21.785Z,10.59
2022-10-19T09:55:54.851Z,10.64
2022-10-19T09:58:29.181Z,10.74
2022-10-19T10:01:00.774Z,10.78
2022-10-19T10:03:31.400Z,10.86
2022-10-19T10:06:03.443Z,10.95
2022-10-19T10:08:36.776Z,10.96
2022-10-19T10:11:11.691Z,11.02
2022-10-19T10:13:42.025Z,11.10
2022-10-19T10:16:16.246Z,11.12
2022-10-19T10:21:48.707Z,11.16
2022-10-19T10:24:20.783Z,11.21
2022-10-19T10:26:52.170Z,11.25
2022-10-19T10:29:22.270Z,11.28
2022-10-19T10:31:52.848Z,11.30
2022-10-19T10:34:45.967Z,11.31
2022-10-19T10:37:22.961Z,11.33
2022-10-19T10:39:56.604Z,11.35
2022-10-19T10:42:31.456Z,11.36
2022-10-19T10:45:00.708Z,11.41
2022-10-19T10:47:30.695Z,11.42
2022-10-19T10:50:01.416Z,11.46
2022-10-19T10:52:31.917Z,11.51
2022-10-19T10:55:03.898Z,11.53
2022-10-19T10:57:35.124Z,11.53
2022-10-19T11:00:11.308Z,11.54
2022-10-19T11:02:48.751Z,11.56
2022-10-19T11:05:20.820Z,11.56
2022-10-19T11:07:53.021Z,11.60
2022-10-19T11:10:31.300Z,11.67
2022-10-19T11:13:06.705Z,11.69
2022-10-19T11:15:41.429Z,11.73
2022-10-19T11:18:18.822Z,11.79
2022-10-19T11:20:53.949Z,11.83
2022-10-19T11:23:36.323Z,11.89
2022-10-19T11:26:13.990Z,11.92
2022-10-19T11:28:56.947Z,11.93
2022-10-19T11:31:39.223Z,11.94
2022-10-19T11:34:23.696Z,11.96
2022-10-19T11:37:01.196Z,12.02
2022-10-19T11:39:43.755Z,12.03
2022-10-19T11:42:25.255Z,12.05
2022-10-19T11:45:06.772Z,12.07
2022-10-19T11:47:51.923Z,12.13
2022-10-19T11:50:32.313Z,12.19
2022-10-19T11:53:08.361Z,12.25
2022-10-19T11:55:45.702Z,12.34
2022-10-19T11:58:35.786Z,12.48
2022-10-19T12:01:13.734Z,12.64
2022-10-19T12:04:13.400Z,12.81
2022-10-19T12:06:49.869Z,12.91
2022-10-19T12:09:31.219Z,13.03
2022-10-19T12:12:19.774Z,13.09
2022-10-19T12:14:52.766Z,13.10
2022-10-19T12:17:26.701Z,13.14
2022-10-19T12:19:57.530Z,13.12
2022-10-19T12:22:29.781Z,13.06
2022-10-19T12:25:01.766Z,12.99
2022-10-19T12:27:35.353Z,12.96
2022-10-19T12:30:08.683Z,12.89
2022-10-19T12:32:45.012Z,12.87
2022-10-19T12:35:25.998Z,12.84
2022-10-19T12:37:59.500Z,12.80
2022-10-19T12:40:36.247Z,12.73
2022-10-19T12:43:13.361Z,12.67
2022-10-19T12:45:49.562Z,12.66
2022-10-19T12:48:25.470Z,12.64
2022-10-19T12:51:05.620Z,12.68
2022-10-19T12:53:39.347Z,12.70
2022-10-19T12:56:12.325Z,12.76
2022-10-19T12:58:48.261Z,12.82
2022-10-19T13:01:22.369Z,12.86
2022-10-19T13:03:54.885Z,12.88
2022-10-19T13:06:34.515Z,12.86
2022-10-19T13:09:05.497Z,12.85
2022-10-19T13:14:08.801Z,12.87
2022-10-19T13:16:56.971Z,12.89
2022-10-19T13:19:25.562Z,12.97
2022-10-19T13:22:26.718Z,13.12
2022-10-19T13:25:26.966Z,13.31
2022-10-19T13:27:57.145Z,13.42
2022-10-19T13:31:08.194Z,13.50
2022-10-19T13:33:47.688Z,13.43
2022-10-19T13:36:16.272Z,13.40
2022-10-19T13:38:46.496Z,13.36
2022-10-19T13:41:21.927Z,13.33
2022-10-19T13:44:00.722Z,13.23
2022-10-19T13:46:48.749Z,13.13
2022-10-19T13:49:50.720Z,13.08
2022-10-19T13:52:42.634Z,13.13
2022-10-19T13:55:31.908Z,13.16
2022-10-19T13:58:22.299Z,13.16
2022-10-19T14:01:06.416Z,13.18
2022-10-19T14:03:55.030Z,13.11
2022-10-19T14:06:28.818Z,13.09
2022-10-19T14:09:32.716Z,13.05
2022-10-19T14:12:08.065Z,13.01
2022-10-19T14:14:44.244Z,12.98
2022-10-19T14:19:49.121Z,12.88
2022-10-19T14:22:26.218Z,12.83
2022-10-19T14:25:01.346Z,12.78
2022-10-19T14:27:31.427Z,12.69
2022-10-19T14:29:59.483Z,12.64
2022-10-19T14:32:29.410Z,12.58
2022-10-19T14:37:34.229Z,12.42
2022-10-19T14:40:05.124Z,12.38
2022-10-19T14:42:44.636Z,12.34
2022-10-19T14:45:19.837Z,12.28
2022-10-19T14:48:00.117Z,12.18
2022-10-19T14:50:35.756Z,12.12
2022-10-19T14:53:20.222Z,12.10
2022-10-19T14:55:49.551Z,12.01
2022-10-19T14:58:20.944Z,11.93
2022-10-19T15:00:51.654Z,11.83
2022-10-19T15:03:24.678Z,11.77
2022-10-19T15:05:57.492Z,11.76
2022-10-19T15:08:34.564Z,11.73
2022-10-19T15:11:02.547Z,11.64
2022-10-19T15:13:34.493Z,11.59
2022-10-19T15:16:03.079Z,11.54
2022-10-19T15:18:48.793Z,11.45
2022-10-19T15:21:20.860Z,11.38
2022-10-19T15:23:51.455Z,11.31
2022-10-19T15:26:21.592Z,11.24
2022-10-19T15:28:50.335Z,11.16
2022-10-19T15:31:20.428Z,11.15
2022-10-19T15:33:51.434Z,11.11
2022-10-19T15:36:20.688Z,11.07
2022-10-19T15:39:11.386Z,11.02
2022-10-19T15:41:47.737Z,10.94
2022-10-19T15:44:33.165Z,10.85
2022-10-19T15:47:28.296Z,10.77
2022-10-19T15:49:58.972Z,10.73
2022-10-19T15:52:27.954Z,10.68
2022-10-19T15:54:59.124Z,10.60
2022-10-19T15:57:30.415Z,10.53
2022-10-19T16:00:00.303Z,10.47
2022-10-19T16:02:28.387Z,10.40
2022-10-19T16:04:56.703Z,10.36
2022-10-19T16:07:28.275Z,10.32
2022-10-19T16:09:58.568Z,10.26
2022-10-19T16:12:27.301Z,10.17
2022-10-19T16:14:55.597Z,10.10
2022-10-19T16:17:23.836Z,10.04
2022-10-19T16:19:52.105Z,9.95
2022-10-19T16:22:20.192Z,9.86
2022-10-19T16:24:51.057Z,9.79
2022-10-19T16:27:25.207Z,9.71
2022-10-19T16:29:53.047Z,9.63
2022-10-19T16:32:25.945Z,9.55
2022-10-19T16:34:53.999Z,9.49
2022-10-19T16:37:21.774Z,9.39
2022-10-19T16:39:49.629Z,9.32
2022-10-19T16:42:18.163Z,9.26
2022-10-19T16:44:47.256Z,9.18
2022-10-19T16:47:16.958Z,9.12
2022-10-19T16:49:44.909Z,9.05
2022-10-19T16:52:14.324Z,8.99
2022-10-19T16:54:42.193Z,8.94
2022-10-19T16:57:10.224Z,8.86
2022-10-19T16:59:38.040Z,8.78
2022-10-19T17:02:07.244Z,8.74
2022-10-19T17:04:35.109Z,8.69
2022-10-19T17:07:03.195Z,8.64
2022-10-19T17:09:41.373Z,8.57
2022-10-19T17:12:10.800Z,8.53
2022-10-19T17:14:40.803Z,8.49
2022-10-19T17:17:11.402Z,8.42
2022-10-19T17:19:39.457Z,8.37
2022-10-19T17:22:07.489Z,8.34
2022-10-19T17:24:37.298Z,8.27
2022-10-19T17:27:05.065Z,8.24
2022-10-19T17:29:33.019Z,8.21
2022-10-19T17:32:00.961Z,8.20
2022-10-19T17:34:30.147Z,8.16
2022-10-19T17:36:58.003Z,8.15
2022-10-19T17:39:29.004Z,8.12
2022-10-19T17:42:02.061Z,8.09
2022-10-19T17:44:31.479Z,8.06
2022-10-19T17:47:00.750Z,8.03
2022-10-19T17:49:30.441Z,7.98
2022-10-19T17:51:58.866Z,7.93
2022-10-19T17:54:27.115Z,7.87
2022-10-19T17:56:54.898Z,7.85
2022-10-19T17:59:34.848Z,7.81
2022-10-19T18:02:03.791Z,7.75
2022-10-19T18:04:33.042Z,7.73
2022-10-19T18:07:00.964Z,7.70
2022-10-19T18:09:28.801Z,7.69
2022-10-19T18:11:56.645Z,7.68
2022-10-19T18:14:24.511Z,7.67
2022-10-19T18:16:52.367Z,7.64
2022-10-19T18:19:20.240Z,7.61
2022-10-19T18:21:50.009Z,7.59
2022-10-19T18:24:20.244Z,7.56
2022-10-19T18:26:49.122Z,7.53
2022-10-19T18:29:20.390Z,7.47
2022-10-19T18:31:51.475Z,7.45
2022-10-19T18:34:21.055Z,7.42
2022-10-19T18:36:50.381Z,7.39
2022-10-19T18:39:19.114Z,7.37
2022-10-19T18:41:48.220Z,7.35
2022-10-19T18:44:16.250Z,7.31
2022-10-19T18:46:44.840Z,7.29
2022-10-19T18:49:13.503Z,7.26
2022-10-19T18:51:41.395Z,7.24
2022-10-19T18:54:11.955Z,7.20
2022-10-19T18:56:39.963Z,7.17
2022-10-19T18:59:07.992Z,7.12
2022-10-19T19:01:36.118Z,7.09
2022-10-19T19:04:09.330Z,7.07
2022-10-19T19:06:39.371Z,7.06
2022-10-19T19:09:09.642Z,7.03
2022-10-19T19:11:41.060Z,6.99
2022-10-19T19:14:13.274Z,6.96
2022-10-19T19:16:42.440Z,6.92
2022-10-19T19:19:12.818Z,6.88
2022-10-19T19:21:45.148Z,6.86
2022-10-19T19:24:14.757Z,6.85
2022-10-19T19:26:49.459Z,6.83
2022-10-19T19:29:17.961Z,6.81
2022-10-19T19:31:45.766Z,6.81
2022-10-19T19:34:13.957Z,6.80
2022-10-19T19:36:47.406Z,6.79
2022-10-19T19:39:17.219Z,6.79
2022-10-19T19:41:46.579Z,6.78
2022-10-19T19:44:14.644Z,6.77
2022-10-19T19:46:42.798Z,6.78
2022-10-19T19:49:10.734Z,6.81
2022-10-19T19:51:38.858Z,6.85
2022-10-19T19:54:07.494Z,6.88
2022-10-19T19:56:37.185Z,6.90
2022-10-19T19:59:06.399Z,6.96
2022-10-19T20:01:34.380Z,6.99
2022-10-19T20:06:37.397Z,7.02
2022-10-19T20:09:05.894Z,7.03
2022-10-19T20:11:37.140Z,7.01
2022-10-19T20:14:08.987Z,7.02
2022-10-19T20:16:37.066Z,7.02
2022-10-19T20:19:07.336Z,7.01
2022-10-19T20:21:35.298Z,6.99
2022-10-19T20:24:03.203Z,6.98
2022-10-19T20:26:31.943Z,6.96
2022-10-19T20:29:00.141Z,6.95
2022-10-19T20:31:29.443Z,6.93
2022-10-19T20:33:57.243Z,6.92
2022-10-19T20:36:26.835Z,6.89
2022-10-19T20:38:56.754Z,6.87
2022-10-19T20:41:27.402Z,6.87
2022-10-19T20:43:56.240Z,6.86
2022-10-19T20:46:25.756Z,6.86
2022-10-19T20:48:56.790Z,6.86
2022-10-19T20:51:30.756Z,6.85
2022-10-19T20:54:00.918Z,6.82
2022-10-19T20:56:30.983Z,6.81
2022-10-19T20:59:00.380Z,6.81
2022-10-19T21:01:30.321Z,6.79
2022-10-19T21:04:03.580Z,6.77
2022-10-19T21:06:33.372Z,6.74
2022-10-19T21:09:01.654Z,6.75
2022-10-19T21:11:31.474Z,6.73
2022-10-19T21:14:00.832Z,6.72
2022-10-19T21:16:33.497Z,6.71
2022-10-19T21:19:03.234Z,6.69
2022-10-19T21:21:33.208Z,6.68
2022-10-19T21:24:04.431Z,6.69
2022-10-19T21:26:34.748Z,6.68
2022-10-19T21:29:03.136Z,6.68
2022-10-19T21:31:31.167Z,6.67
2022-10-19T21:33:59.019Z,6.65
2022-10-19T21:36:28.154Z,6.62
2022-10-19T21:38:57.215Z,6.58
2022-10-19T21:41:26.410Z,6.54
2022-10-19T21:43:54.660Z,6.49
2022-10-19T21:46:23.783Z,6.45
2022-10-19T21:48:52.374Z,6.42
2022-10-19T21:51:31.459Z,6.38
2022-10-19T21:54:01.445Z,6.35
2022-10-19T21:56:29.742Z,6.31
2022-10-19T21:58:57.917Z,6.28
2022-10-19T22:01:27.994Z,6.24
2022-10-19T22:06:37.484Z,6.14
2022-10-19T22:09:06.972Z,6.09
2022-10-19T22:11:35.227Z,6.05
2022-10-19T22:14:04.573Z,6.03
2022-10-19T22:16:33.591Z,6.02
2022-10-19T22:19:01.472Z,6.01
2022-10-19T22:21:31.458Z,5.98
2022-10-19T22:24:04.042Z,5.97
2022-10-19T22:26:34.520Z,5.97
2022-10-19T22:29:04.766Z,5.96
2022-10-19T22:31:33.590Z,5.95
2022-10-19T22:34:01.796Z,5.95
2022-10-19T22:36:29.632Z,5.94
2022-10-19T22:38:57.459Z,5.93
2022-10-19T22:41:28.270Z,5.92
2022-10-19T22:43:56.059Z,5.89
2022-10-19T22:46:23.961Z,5.86
2022-10-19T22:48:52.004Z,5.86
2022-10-19T22:51:19.862Z,5.86
2022-10-19T22:53:47.766Z,5.85
2022-10-19T22:56:15.484Z,5.82
2022-10-19T22:58:44.732Z,5.80
2022-10-19T23:01:15.032Z,5.79
2022-10-19T23:03:43.909Z,5.78
2022-10-19T23:06:14.477Z,5.77
2022-10-19T23:08:43.268Z,5.76
2022-10-19T23:11:11.907Z,5.75
2022-10-19T23:13:40.216Z,5.76
2022-10-19T23:16:10.697Z,5.74
2022-10-19T23:18:40.872Z,5.73
2022-10-19T23:21:11.688Z,5.70
2022-10-19T23:23:40.210Z,5.71
2022-10-19T23:26:10.589Z,5.70
2022-10-19T23:28:40.960Z,5.70
2022-10-19T23:31:12.008Z,5.71
2022-10-19T23:33:40.731Z,5.71
2022-10-19T23:36:10.851Z,5.70
2022-10-19T23:38:38.998Z,5.70
2022-10-19T23:41:07.579Z,5.70
2022-10-19T23:46:04.846Z,5.70
2022-10-19T23:48:35.396Z,5.69
2022-10-19T23:51:05.376Z,5.68
2022-10-19T23:53:38.407Z,5.67
2022-10-19T23:56:12.992Z,5.64
2022-10-19T23:58:42.047Z,5.61
